createdAt,value
2024-05-09T00:00:44.084Z,7.88
2024-05-09T00:03:12.421Z,5.22
2024-05-09T00:05:41.497Z,5.20
2024-05-09T00:08:10.363Z,5.33
2024-05-09T00:10:39.585Z,4.85
2024-05-09T00:13:08.876Z,4.97
2024-05-09T00:15:37.116Z,4.80
2024-05-09T00:18:07.110Z,4.65
2024-05-09T00:20:39.116Z,5.03
2024-05-09T00:23:11.101Z,5.13
2024-05-09T00:25:39.606Z,4.47
2024-05-09T00:28:07.171Z,4.30
2024-05-09T00:30:36.705Z,4.45
2024-05-09T00:33:07.000Z,4.38
2024-05-09T00:35:35.898Z,4.93
2024-05-09T00:38:04.098Z,4.03
2024-05-09T00:40:43.125Z,4.15
2024-05-09T00:43:12.840Z,4.03
2024-05-09T00:45:41.530Z,4.60
2024-05-09T00:48:12.585Z,4.25
2024-05-09T00:50:44.333Z,3.92
2024-05-09T00:53:14.422Z,4.20
2024-05-09T00:55:42.754Z,4.22
2024-05-09T00:58:13.621Z,4.50
2024-05-09T01:00:41.750Z,4.55
2024-05-09T01:03:12.103Z,4.40
2024-05-09T01:05:43.097Z,4.10
2024-05-09T01:08:11.553Z,4.25
2024-05-09T01:10:41.645Z,4.90
2024-05-09T01:13:11.594Z,4.05
2024-05-09T01:15:39.015Z,5.13
2024-05-09T01:18:12.104Z,4.50
2024-05-09T01:20:43.830Z,4.88
2024-05-09T01:23:15.347Z,4.43
2024-05-09T01:25:44.973Z,4.65
2024-05-09T01:28:13.055Z,4.82
2024-05-09T01:30:40.551Z,4.70
2024-05-09T01:33:10.210Z,5.22
2024-05-09T01:35:41.958Z,5.75
2024-05-09T01:38:13.610Z,6.00
2024-05-09T01:40:41.859Z,5.57
2024-05-09T01:43:10.727Z,7.15
2024-05-09T01:45:40.864Z,7.22
2024-05-09T01:48:09.648Z,9.55
2024-05-09T01:50:40.968Z,12.93
2024-05-09T01:53:12.388Z,12.80
2024-05-09T01:55:40.335Z,10.98
2024-05-09T01:58:08.944Z,11.95
2024-05-09T02:00:40.836Z,11.80
2024-05-09T02:03:14.015Z,12.93
2024-05-09T02:05:45.233Z,10.25
2024-05-09T02:08:18.372Z,9.55
2024-05-09T02:10:47.960Z,8.23
2024-05-09T02:13:16.745Z,10.20
2024-05-09T02:15:44.560Z,9.73
2024-05-09T02:18:12.830Z,9.48
2024-05-09T02:20:41.906Z,10.82
2024-05-09T02:23:10.051Z,9.88
2024-05-09T02:25:39.260Z,10.30
2024-05-09T02:28:06.891Z,10.38
2024-05-09T02:30:39.880Z,9.55
2024-05-09T02:33:12.313Z,8.98
2024-05-09T02:35:43.327Z,9.25
2024-05-09T02:38:12.407Z,8.32
2024-05-09T02:40:40.760Z,9.38
2024-05-09T02:43:10.170Z,10.27
2024-05-09T02:45:39.819Z,8.55
2024-05-09T02:48:10.965Z,9.83
2024-05-09T02:50:40.922Z,9.48
2024-05-09T02:53:09.538Z,9.23
2024-05-09T02:55:38.450Z,9.02
2024-05-09T02:58:09.246Z,8.50
2024-05-09T03:00:40.560Z,9.00
2024-05-09T03:03:13.226Z,8.57
2024-05-09T03:05:45.831Z,8.52
2024-05-09T03:08:14.058Z,8.90
2024-05-09T03:10:41.922Z,8.18
2024-05-09T03:13:15.103Z,8.25
2024-05-09T03:15:45.027Z,8.05
2024-05-09T03:18:13.560Z,8.35
2024-05-09T03:20:43.974Z,7.72
2024-05-09T03:23:11.715Z,8.00
2024-05-09T03:25:39.290Z,7.85
2024-05-09T03:28:06.914Z,7.55
2024-05-09T03:30:41.162Z,8.98
2024-05-09T03:33:13.181Z,8.25
2024-05-09T03:35:42.807Z,7.85
2024-05-09T03:38:10.444Z,8.23
2024-05-09T03:40:47.223Z,8.30
2024-05-09T03:43:15.647Z,8.63
2024-05-09T03:45:43.729Z,7.75
2024-05-09T03:48:11.453Z,7.68
2024-05-09T03:50:39.377Z,7.65
2024-05-09T03:53:10.131Z,7.47
2024-05-09T03:55:37.962Z,7.90
2024-05-09T03:58:07.948Z,8.38
2024-05-09T04:00:39.124Z,6.70
2024-05-09T04:03:11.075Z,7.20
2024-05-09T04:05:42.516Z,6.45
2024-05-09T04:08:14.134Z,5.75
2024-05-09T04:10:41.731Z,4.38
2024-05-09T04:13:10.045Z,4.68
2024-05-09T04:15:37.512Z,4.28
2024-05-09T04:18:05.395Z,4.20
2024-05-09T04:20:38.394Z,4.80
2024-05-09T04:23:11.795Z,4.15
2024-05-09T04:25:45.158Z,4.10
2024-05-09T04:28:14.355Z,4.13
2024-05-09T04:30:42.606Z,4.35
2024-05-09T04:33:13.227Z,4.18
2024-05-09T04:35:43.771Z,4.63
2024-05-09T04:38:12.678Z,5.53
2024-05-09T04:40:40.310Z,4.75
2024-05-09T04:43:15.105Z,4.55
2024-05-09T04:45:43.657Z,4.03
2024-05-09T04:48:11.298Z,4.50
2024-05-09T04:50:39.823Z,4.47
2024-05-09T04:53:09.815Z,4.07
2024-05-09T04:55:39.909Z,4.28
2024-05-09T04:58:11.818Z,4.35
2024-05-09T05:00:40.704Z,4.32
2024-05-09T05:03:14.477Z,3.58
2024-05-09T05:05:45.176Z,4.00
2024-05-09T05:08:18.775Z,3.72
2024-05-09T05:10:48.554Z,3.08
2024-05-09T05:15:47.450Z,4.10
2024-05-09T05:18:15.905Z,4.40
2024-05-09T05:20:44.347Z,3.97
2024-05-09T05:23:16.318Z,4.72
2024-05-09T05:25:45.100Z,5.10
2024-05-09T05:28:12.615Z,4.55
2024-05-09T05:30:41.194Z,4.63
2024-05-09T05:33:14.305Z,5.15
2024-05-09T05:35:42.420Z,5.82
2024-05-09T05:38:10.992Z,5.80
2024-05-09T05:40:40.041Z,5.88
2024-05-09T05:45:44.161Z,5.18
2024-05-09T05:48:14.080Z,4.93
2024-05-09T05:50:42.875Z,4.03
2024-05-09T05:53:10.938Z,4.20
2024-05-09T05:55:40.068Z,3.47
2024-05-09T05:58:11.812Z,3.90
2024-05-09T06:00:41.699Z,3.58
2024-05-09T06:03:10.754Z,3.67
2024-05-09T06:05:44.111Z,3.50
2024-05-09T06:08:12.714Z,4.50
2024-05-09T06:10:41.488Z,4.43
2024-05-09T06:13:13.596Z,6.63
2024-05-09T06:15:42.727Z,5.10
2024-05-09T06:18:12.279Z,7.40
2024-05-09T06:20:42.915Z,6.82
2024-05-09T06:23:11.891Z,5.28
2024-05-09T06:25:39.777Z,4.97
2024-05-09T06:28:10.439Z,5.28
2024-05-09T06:30:42.115Z,5.30
2024-05-09T06:33:14.410Z,4.88
2024-05-09T06:35:44.840Z,4.32
2024-05-09T06:38:12.712Z,3.35
2024-05-09T06:40:42.905Z,2.75
2024-05-09T06:43:17.085Z,2.60
2024-05-09T06:45:53.101Z,3.95
2024-05-09T06:48:22.346Z,3.80
2024-05-09T06:50:50.844Z,3.85
2024-05-09T06:53:22.138Z,3.33
2024-05-09T06:55:50.068Z,2.85
2024-05-09T06:58:17.596Z,2.78
2024-05-09T07:00:45.182Z,3.83
2024-05-09T07:03:16.788Z,3.38
2024-05-09T07:05:47.809Z,3.42
2024-05-09T07:08:17.721Z,5.03
2024-05-09T07:10:45.889Z,3.88
2024-05-09T07:13:15.205Z,3.95
2024-05-09T07:15:43.150Z,3.22
2024-05-09T07:18:17.394Z,3.70
2024-05-09T07:20:47.950Z,3.80
2024-05-09T07:23:16.410Z,3.97
2024-05-09T07:25:43.963Z,3.30
2024-05-09T07:28:15.016Z,3.60
2024-05-09T07:30:43.346Z,3.75
2024-05-09T07:33:23.174Z,3.60
2024-05-09T07:35:52.472Z,3.92
2024-05-09T07:38:20.692Z,3.92
2024-05-09T07:40:48.651Z,2.95
2024-05-09T07:43:16.495Z,2.70
2024-05-09T07:45:52.304Z,2.75
2024-05-09T07:50:00.758Z,8.02
2024-05-09T07:53:47.762Z,3.10
2024-05-09T07:56:19.922Z,2.65
2024-05-09T07:58:51.648Z,2.50
2024-05-09T08:03:50.654Z,3.10
2024-05-09T08:06:18.407Z,2.95
2024-05-09T08:08:47.511Z,3.22
2024-05-09T08:11:15.062Z,3.13
2024-05-09T08:13:43.015Z,3.28
2024-05-09T08:16:11.274Z,3.03
2024-05-09T08:18:39.444Z,3.22
2024-05-09T08:21:07.117Z,3.75
2024-05-09T08:23:34.924Z,2.88
2024-05-09T08:26:02.661Z,3.97
2024-05-09T08:28:30.199Z,3.25
2024-05-09T08:30:57.926Z,2.88
2024-05-09T08:33:25.710Z,2.97
2024-05-09T08:35:54.625Z,4.10
2024-05-09T08:38:22.040Z,3.33
2024-05-09T08:40:50.804Z,3.30
2024-05-09T08:43:20.310Z,3.40
2024-05-09T08:45:50.202Z,3.45
2024-05-09T08:48:19.785Z,3.85
2024-05-09T08:50:50.763Z,4.18
2024-05-09T08:53:28.090Z,3.40
2024-05-09T08:56:01.516Z,3.78
2024-05-09T08:58:34.335Z,3.90
2024-05-09T09:01:04.286Z,3.70
2024-05-09T09:03:34.229Z,21.58
2024-05-09T09:06:06.561Z,30.52
2024-05-09T09:08:34.707Z,12.02
2024-05-09T09:11:02.842Z,3.55
2024-05-09T09:13:30.436Z,3.38
2024-05-09T09:15:59.378Z,3.65
2024-05-09T09:18:28.224Z,3.97
2024-05-09T09:20:56.419Z,3.33
2024-05-09T09:23:24.546Z,3.17
2024-05-09T09:25:52.167Z,2.78
2024-05-09T09:28:23.319Z,2.85
2024-05-09T09:30:51.216Z,2.67
2024-05-09T09:33:18.916Z,2.70
2024-05-09T09:35:46.732Z,2.83
2024-05-09T09:38:21.474Z,2.78
2024-05-09T09:40:50.933Z,2.90
2024-05-09T09:43:22.879Z,3.05
2024-05-09T09:45:53.347Z,3.30
2024-05-09T09:48:22.570Z,3.22
2024-05-09T09:50:52.735Z,3.28
2024-05-09T09:53:20.730Z,4.45
2024-05-09T09:55:48.926Z,2.95
2024-05-09T09:58:17.764Z,2.85
2024-05-09T10:00:45.863Z,2.92
2024-05-09T10:03:13.527Z,2.75
2024-05-09T10:05:45.081Z,2.80
2024-05-09T10:08:17.957Z,3.35
2024-05-09T10:10:47.982Z,3.40
2024-05-09T10:15:48.541Z,2.78
2024-05-09T10:18:16.574Z,2.85
2024-05-09T10:20:49.411Z,2.85
2024-05-09T10:23:30.760Z,2.60
2024-05-09T10:26:03.602Z,2.50
2024-05-09T10:28:34.216Z,2.20
2024-05-09T10:31:13.528Z,2.10
2024-05-09T10:36:20.231Z,2.00
2024-05-09T10:38:49.592Z,2.00
2024-05-09T10:41:17.897Z,2.72
2024-05-09T10:43:45.713Z,1.92
2024-05-09T10:46:14.687Z,1.80
2024-05-09T10:48:43.851Z,1.95
2024-05-09T10:51:13.340Z,2.13
2024-05-09T10:53:45.881Z,2.13
2024-05-09T10:56:14.611Z,1.85
2024-05-09T10:58:42.683Z,2.27
2024-05-09T11:01:18.126Z,2.08
2024-05-09T11:03:49.497Z,2.40
2024-05-09T11:06:18.251Z,3.17
2024-05-09T11:08:49.180Z,2.17
2024-05-09T11:11:17.243Z,2.20
2024-05-09T11:13:44.639Z,11.10
2024-05-09T11:16:20.635Z,8.93
2024-05-09T11:18:56.680Z,4.00
2024-05-09T11:21:24.828Z,2.85
2024-05-09T11:23:52.896Z,2.55
2024-05-09T11:26:22.355Z,2.60
2024-05-09T11:28:50.971Z,2.65
2024-05-09T11:31:18.932Z,2.03
2024-05-09T11:33:46.900Z,2.42
2024-05-09T11:36:15.216Z,2.00
2024-05-09T11:38:43.224Z,2.28
2024-05-09T11:41:17.720Z,2.83
2024-05-09T11:43:45.187Z,2.47
2024-05-09T11:46:12.993Z,1.63
2024-05-09T11:48:40.852Z,2.03
2024-05-09T11:51:08.834Z,1.80
2024-05-09T11:53:36.256Z,2.15
2024-05-09T11:56:04.108Z,2.00
2024-05-09T11:58:37.046Z,2.13
2024-05-09T12:01:04.798Z,1.80
2024-05-09T12:03:35.382Z,2.90
2024-05-09T12:06:04.111Z,2.30
2024-05-09T12:08:31.974Z,1.80
2024-05-09T12:10:59.687Z,2.00
2024-05-09T12:13:27.398Z,1.65
2024-05-09T12:15:55.055Z,2.20
2024-05-09T12:18:22.591Z,1.80
2024-05-09T12:20:49.983Z,1.88
2024-05-09T12:23:18.377Z,1.55
2024-05-09T12:25:53.400Z,2.45
2024-05-09T12:28:27.144Z,1.85
2024-05-09T12:30:54.555Z,5.43
2024-05-09T12:33:23.348Z,1.70
2024-05-09T12:35:51.273Z,1.75
2024-05-09T12:38:18.763Z,1.60
2024-05-09T12:40:46.344Z,1.80
2024-05-09T12:43:13.901Z,1.50
2024-05-09T12:45:41.625Z,1.70
2024-05-09T12:48:12.484Z,1.40
2024-05-09T12:50:41.638Z,1.92
2024-05-09T12:53:10.020Z,1.83
2024-05-09T12:55:45.082Z,1.50
2024-05-09T12:58:24.058Z,1.70
2024-05-09T13:00:52.725Z,1.35
2024-05-09T13:03:21.417Z,1.50
2024-05-09T13:05:50.521Z,1.33
2024-05-09T13:08:18.093Z,1.40
2024-05-09T13:10:45.859Z,1.67
2024-05-09T13:13:13.593Z,4.57
2024-05-09T13:15:41.899Z,1.85
2024-05-09T13:18:09.975Z,1.40
2024-05-09T13:20:37.827Z,4.13
2024-05-09T13:23:07.905Z,1.67
2024-05-09T13:25:37.783Z,17.33
2024-05-09T13:28:07.669Z,1.90
2024-05-09T13:30:40.446Z,2.42
2024-05-09T13:33:18.619Z,2.63
2024-05-09T13:35:49.747Z,2.15
2024-05-09T13:38:20.027Z,1.98
2024-05-09T13:40:48.224Z,3.70
2024-05-09T13:43:17.787Z,1.53
2024-05-09T13:45:46.255Z,1.80
2024-05-09T13:48:14.055Z,1.73
2024-05-09T13:50:41.900Z,2.85
2024-05-09T13:53:09.982Z,1.73
2024-05-09T13:55:39.011Z,1.85
2024-05-09T13:58:07.268Z,1.30
2024-05-09T14:03:05.552Z,1.65
2024-05-09T14:05:33.384Z,1.50
2024-05-09T14:08:01.418Z,1.65
2024-05-09T14:10:31.463Z,1.48
2024-05-09T14:13:01.037Z,1.63
2024-05-09T14:15:29.051Z,1.80
2024-05-09T14:17:56.639Z,1.80
2024-05-09T14:20:30.856Z,1.70
2024-05-09T14:23:00.967Z,1.70
2024-05-09T14:25:31.995Z,1.40
2024-05-09T14:28:00.430Z,1.50
2024-05-09T14:30:34.868Z,1.30
2024-05-09T14:33:06.767Z,1.48
2024-05-09T14:35:35.979Z,1.70
2024-05-09T14:38:04.114Z,1.90
2024-05-09T14:40:40.583Z,1.67
2024-05-09T14:43:12.878Z,1.58
2024-05-09T14:45:42.004Z,2.08
2024-05-09T14:48:10.578Z,1.40
2024-05-09T14:50:40.013Z,1.65
2024-05-09T14:53:09.762Z,1.25
2024-05-09T14:55:40.064Z,1.13
2024-05-09T14:58:10.204Z,1.25
2024-05-09T15:00:44.842Z,1.40
2024-05-09T15:03:15.963Z,1.60
2024-05-09T15:05:43.653Z,1.67
2024-05-09T15:08:11.293Z,1.80
2024-05-09T15:10:39.243Z,1.70
2024-05-09T15:13:08.824Z,1.67
2024-05-09T15:15:37.971Z,1.30
2024-05-09T15:18:06.278Z,1.63
2024-05-09T15:20:36.974Z,2.00
2024-05-09T15:23:06.942Z,2.28
2024-05-09T15:30:34.548Z,1.70
2024-05-09T15:33:06.810Z,1.65
2024-05-09T15:35:36.206Z,1.60
2024-05-09T15:38:04.740Z,1.40
2024-05-09T15:40:38.983Z,1.58
2024-05-09T15:43:10.663Z,1.83
2024-05-09T15:45:40.279Z,1.98
2024-05-09T15:48:09.584Z,1.73
2024-05-09T15:50:40.923Z,1.90
2024-05-09T15:53:12.164Z,1.70
2024-05-09T15:55:40.478Z,2.03
2024-05-09T15:58:08.717Z,1.95
2024-05-09T16:00:40.783Z,2.35
2024-05-09T16:03:12.763Z,6.40
2024-05-09T16:05:44.730Z,1.92
2024-05-09T16:08:13.565Z,1.70
2024-05-09T16:10:44.606Z,1.75
2024-05-09T16:13:13.381Z,2.10
2024-05-09T16:15:41.160Z,2.13
2024-05-09T16:18:08.881Z,1.90
2024-05-09T16:20:40.288Z,1.67
2024-05-09T16:23:10.939Z,1.95
2024-05-09T16:25:40.333Z,2.00
2024-05-09T16:28:10.480Z,2.33
2024-05-09T16:30:40.044Z,1.73
2024-05-09T16:33:08.698Z,1.85
2024-05-09T16:35:37.496Z,1.88
2024-05-09T16:38:06.213Z,1.85
2024-05-09T16:40:38.470Z,1.58
2024-05-09T16:43:13.112Z,2.00
2024-05-09T16:45:46.340Z,1.38
2024-05-09T16:48:14.909Z,2.80
2024-05-09T16:50:42.821Z,1.83
2024-05-09T16:53:10.689Z,1.90
2024-05-09T16:55:38.796Z,1.25
2024-05-09T16:58:08.627Z,2.65
2024-05-09T17:00:41.490Z,2.05
2024-05-09T17:03:14.274Z,1.65
2024-05-09T17:05:43.479Z,3.00
2024-05-09T17:08:12.353Z,2.00
2024-05-09T17:10:40.189Z,4.22
2024-05-09T17:13:08.489Z,1.88
2024-05-09T17:15:37.679Z,2.15
2024-05-09T17:18:09.956Z,1.80
2024-05-09T17:20:37.956Z,2.30
2024-05-09T17:23:15.480Z,2.10
2024-05-09T17:25:43.623Z,1.88
2024-05-09T17:28:12.019Z,2.20
2024-05-09T17:30:41.731Z,1.98
2024-05-09T17:33:11.768Z,2.03
2024-05-09T17:35:42.292Z,1.77
2024-05-09T17:38:10.250Z,1.60
2024-05-09T17:40:38.899Z,1.70
2024-05-09T17:43:09.315Z,1.52
2024-05-09T17:45:41.266Z,2.00
2024-05-09T17:48:11.664Z,1.80
2024-05-09T17:50:41.214Z,1.73
2024-05-09T17:53:10.940Z,2.22
2024-05-09T17:55:39.898Z,1.85
2024-05-09T17:58:08.076Z,1.80
2024-05-09T18:00:39.889Z,1.83
2024-05-09T18:03:12.333Z,3.83
2024-05-09T18:05:41.726Z,6.35
2024-05-09T18:08:09.900Z,8.98
2024-05-09T18:10:41.675Z,2.65
2024-05-09T18:13:10.077Z,2.50
2024-05-09T18:15:38.444Z,2.47
2024-05-09T18:18:07.528Z,2.70
2024-05-09T18:20:42.353Z,2.30
2024-05-09T18:23:15.965Z,2.28
2024-05-09T18:25:45.342Z,1.90
2024-05-09T18:28:13.506Z,2.33
2024-05-09T18:30:44.216Z,2.67
2024-05-09T18:33:12.861Z,2.22
2024-05-09T18:35:44.876Z,2.10
2024-05-09T18:38:12.777Z,2.65
2024-05-09T18:40:42.667Z,1.90
2024-05-09T18:43:11.929Z,2.20
2024-05-09T18:45:40.277Z,2.40
2024-05-09T18:48:09.868Z,2.20
2024-05-09T18:50:40.513Z,2.72
2024-05-09T18:53:11.772Z,1.77
2024-05-09T18:55:43.675Z,2.42
2024-05-09T18:58:11.347Z,2.50
2024-05-09T19:00:41.486Z,2.78
2024-05-09T19:03:13.636Z,2.20
2024-05-09T19:05:44.218Z,1.80
2024-05-09T19:08:14.573Z,1.98
2024-05-09T19:10:42.916Z,2.03
2024-05-09T19:13:13.389Z,1.80
2024-05-09T19:15:43.156Z,2.30
2024-05-09T19:18:12.899Z,2.45
2024-05-09T19:20:40.905Z,2.05
2024-05-09T19:23:08.482Z,1.60
2024-05-09T19:25:36.358Z,1.92
2024-05-09T19:28:05.159Z,2.00
2024-05-09T19:30:39.135Z,10.02
2024-05-09T19:33:11.757Z,3.67
2024-05-09T19:35:40.432Z,2.75
2024-05-09T19:38:08.246Z,2.22
2024-05-09T19:40:36.223Z,2.38
2024-05-09T19:43:05.601Z,2.60
2024-05-09T19:45:35.459Z,2.60
2024-05-09T19:48:05.368Z,2.38
2024-05-09T19:50:41.481Z,3.40
2024-05-09T19:53:13.548Z,2.50
2024-05-09T19:55:42.086Z,2.35
2024-05-09T19:58:10.840Z,2.78
2024-05-09T20:00:41.207Z,2.60
2024-05-09T20:03:12.325Z,2.55
2024-05-09T20:05:42.553Z,4.80
2024-05-09T20:08:10.433Z,2.97
2024-05-09T20:10:39.078Z,2.78
2024-05-09T20:13:08.341Z,3.33
2024-05-09T20:18:06.741Z,3.40
2024-05-09T20:20:39.529Z,3.63
2024-05-09T20:23:13.459Z,2.60
2024-05-09T20:25:42.606Z,2.38
2024-05-09T20:28:11.022Z,2.60
2024-05-09T20:30:39.250Z,2.92
2024-05-09T20:33:08.802Z,3.25
2024-05-09T20:35:37.368Z,3.20
2024-05-09T20:38:05.615Z,2.65
2024-05-09T20:40:37.279Z,3.10
2024-05-09T20:43:08.863Z,3.22
2024-05-09T20:45:36.643Z,3.00
2024-05-09T20:48:04.911Z,2.40
2024-05-09T20:50:38.664Z,3.05
2024-05-09T20:53:14.756Z,3.30
2024-05-09T20:55:44.606Z,2.90
2024-05-09T20:58:13.119Z,3.63
2024-05-09T21:00:44.424Z,4.72
2024-05-09T21:03:16.635Z,6.05
2024-05-09T21:05:46.416Z,6.70
2024-05-09T21:08:15.128Z,5.43
2024-05-09T21:10:43.539Z,5.05
2024-05-09T21:13:11.547Z,5.13
2024-05-09T21:15:39.211Z,5.72
2024-05-09T21:18:07.654Z,7.35
2024-05-09T21:20:35.554Z,8.10
2024-05-09T21:23:03.540Z,8.45
2024-05-09T21:25:32.002Z,11.20
2024-05-09T21:28:00.801Z,11.70
2024-05-09T21:30:38.474Z,11.93
2024-05-09T21:33:11.644Z,14.13
2024-05-09T21:35:41.784Z,13.73
2024-05-09T21:38:09.518Z,16.42
2024-05-09T21:40:38.138Z,15.30
2024-05-09T21:43:09.655Z,15.15
2024-05-09T21:45:37.507Z,15.30
2024-05-09T21:48:06.995Z,15.27
2024-05-09T21:50:40.506Z,21.10
2024-05-09T21:53:11.617Z,15.20
2024-05-09T21:58:07.130Z,14.65
2024-05-09T22:00:38.154Z,14.70
2024-05-09T22:03:08.310Z,14.65
2024-05-09T22:08:04.332Z,14.82
2024-05-09T22:10:35.062Z,13.70
2024-05-09T22:13:08.516Z,14.55
2024-05-09T22:15:38.197Z,13.90
2024-05-09T22:18:08.577Z,13.13
2024-05-09T22:20:39.413Z,14.65
2024-05-09T22:23:08.669Z,14.15
2024-05-09T22:25:36.898Z,15.13
2024-05-09T22:28:05.328Z,14.93
2024-05-09T22:30:37.285Z,13.13
2024-05-09T22:33:11.812Z,12.48
2024-05-09T22:35:41.037Z,12.18
2024-05-09T22:38:09.214Z,11.13
2024-05-09T22:40:45.620Z,10.95
2024-05-09T22:43:21.718Z,10.52
2024-05-09T22:45:51.320Z,10.68
2024-05-09T22:48:19.383Z,11.20
2024-05-09T22:50:49.885Z,10.93
2024-05-09T22:53:19.023Z,10.35
2024-05-09T22:55:46.380Z,11.45
2024-05-09T22:58:13.874Z,11.05
2024-05-09T23:00:41.337Z,11.75
2024-05-09T23:03:09.036Z,11.85
2024-05-09T23:05:36.663Z,12.25
2024-05-09T23:08:04.309Z,17.48
2024-05-09T23:10:36.193Z,11.27
2024-05-09T23:13:07.418Z,11.45
2024-05-09T23:15:36.885Z,11.13
2024-05-09T23:18:04.984Z,11.10
2024-05-09T23:20:37.594Z,10.82
2024-05-09T23:23:07.814Z,9.90
2024-05-09T23:25:35.485Z,9.85
2024-05-09T23:28:03.080Z,62.65
2024-05-09T23:30:37.542Z,14.05
2024-05-09T23:33:09.532Z,9.88
2024-05-09T23:35:37.828Z,9.75
2024-05-09T23:38:05.540Z,9.60
2024-05-09T23:40:39.313Z,10.32
2024-05-09T23:43:10.076Z,9.65
2024-05-09T23:45:38.032Z,9.10
2024-05-09T23:48:06.567Z,9.80
2024-05-09T23:50:37.711Z,9.55
2024-05-09T23:53:09.198Z,9.30
2024-05-09T23:55:38.091Z,10.05
2024-05-09T23:58:06.712Z,9.32
